Overbrook, New Jersey
Current Conditions -  °F | °C
As of 6:16 AM on Friday 24 Oct 2014 (Local Time) from KCDW Reporting Station
Broken Clouds Broken Clouds  
Wind Chill: 50°   Ceiling: 2500
Heat Index: 50°   Visibility: 10mi
Dew Point: 41°   Wind: 7mph
Humidity: 71%   Direction: 310°NW
Pressure: 29.81"   Gusts: NA
Location:  40.8566°N, 74.2292°W
Report Text: KCDW 241016Z AUTO 31006KT 10SM BKN025 BKN110 10/05 A2981 RMK AO2 T01000050 TSNO
Loading
Personal Weather Stations






























Interactive Weather Map
Tropical Storm Tracking
New forecast layout! Learn more

10-Day Weather Forecast

Advertisements
Track Severe Weather on mobile